sensor_id;sensor_type;location;lat;lon;timestamp;pressure;altitude;pressure_sealevel;temperature
11321;BMP180;5715;48.234;14.320;2024-03-17T00:01:17;99132.00;;;18.00
11321;BMP180;5715;48.234;14.320;2024-03-17T00:04:04;99131.00;;;17.80
11321;BMP180;5715;48.234;14.320;2024-03-17T00:06:50;99127.00;;;17.90
11321;BMP180;5715;48.234;14.320;2024-03-17T00:09:37;99126.00;;;18.00
11321;BMP180;5715;48.234;14.320;2024-03-17T00:12:24;99117.00;;;18.00
11321;BMP180;5715;48.234;14.320;2024-03-17T00:15:10;99118.00;;;18.20
11321;BMP180;5715;48.234;14.320;2024-03-17T00:17:57;99118.00;;;18.00
11321;BMP180;5715;48.234;14.320;2024-03-17T00:20:44;99116.00;;;17.90
11321;BMP180;5715;48.234;14.320;2024-03-17T00:23:31;99135.00;;;18.00
11321;BMP180;5715;48.234;14.320;2024-03-17T00:26:18;99152.00;;;18.00
11321;BMP180;5715;48.234;14.320;2024-03-17T00:29:08;99144.00;;;17.80
11321;BMP180;5715;48.234;14.320;2024-03-17T00:31:55;99148.00;;;18.00
11321;BMP180;5715;48.234;14.320;2024-03-17T00:34:43;99142.00;;;18.30
11321;BMP180;5715;48.234;14.320;2024-03-17T00:37:29;99139.00;;;18.20
11321;BMP180;5715;48.234;14.320;2024-03-17T00:40:20;99140.00;;;18.30
11321;BMP180;5715;48.234;14.320;2024-03-17T00:43:07;99138.00;;;18.00
11321;BMP180;5715;48.234;14.320;2024-03-17T00:45:54;99142.00;;;17.90
11321;BMP180;5715;48.234;14.320;2024-03-17T00:48:40;99145.00;;;17.90
11321;BMP180;5715;48.234;14.320;2024-03-17T00:51:27;99151.00;;;17.80
11321;BMP180;5715;48.234;14.320;2024-03-17T00:54:14;99147.00;;;17.70
11321;BMP180;5715;48.234;14.320;2024-03-17T00:57:00;99156.00;;;17.80
11321;BMP180;5715;48.234;14.320;2024-03-17T00:59:47;99166.00;;;17.70
11321;BMP180;5715;48.234;14.320;2024-03-17T01:02:34;99168.00;;;17.30
11321;BMP180;5715;48.234;14.320;2024-03-17T01:05:20;99166.00;;;17.60
11321;BMP180;5715;48.234;14.320;2024-03-17T01:08:08;99165.00;;;17.40
11321;BMP180;5715;48.234;14.320;2024-03-17T01:10:54;99154.00;;;17.70
11321;BMP180;5715;48.234;14.320;2024-03-17T01:13:41;99156.00;;;17.70
11321;BMP180;5715;48.234;14.320;2024-03-17T01:16:28;99147.00;;;17.60
11321;BMP180;5715;48.234;14.320;2024-03-17T01:19:14;99149.00;;;17.80
11321;BMP180;5715;48.234;14.320;2024-03-17T01:22:01;99140.00;;;17.90
11321;BMP180;5715;48.234;14.320;2024-03-17T01:24:48;99147.00;;;17.70
11321;BMP180;5715;48.234;14.320;2024-03-17T01:27:35;99151.00;;;17.50
11321;BMP180;5715;48.234;14.320;2024-03-17T01:30:22;99142.00;;;17.50
11321;BMP180;5715;48.234;14.320;2024-03-17T01:33:09;99147.00;;;17.80
11321;BMP180;5715;48.234;14.320;2024-03-17T01:35:56;99147.00;;;17.40
11321;BMP180;5715;48.234;14.320;2024-03-17T01:38:43;99145.00;;;17.50
11321;BMP180;5715;48.234;14.320;2024-03-17T01:41:30;99147.00;;;17.60
11321;BMP180;5715;48.234;14.320;2024-03-17T01:44:35;99159.00;;;17.60
11321;BMP180;5715;48.234;14.320;2024-03-17T01:47:21;99155.00;;;17.50
11321;BMP180;5715;48.234;14.320;2024-03-17T01:50:09;99156.00;;;17.60
11321;BMP180;5715;48.234;14.320;2024-03-17T01:53:02;99158.00;;;17.60
11321;BMP180;5715;48.234;14.320;2024-03-17T01:55:53;99159.00;;;17.40
11321;BMP180;5715;48.234;14.320;2024-03-17T01:58:44;99151.00;;;17.50
11321;BMP180;5715;48.234;14.320;2024-03-17T02:01:32;99158.00;;;17.50
11321;BMP180;5715;48.234;14.320;2024-03-17T02:04:18;99152.00;;;17.40
11321;BMP180;5715;48.234;14.320;2024-03-17T02:07:05;99155.00;;;17.40
11321;BMP180;5715;48.234;14.320;2024-03-17T02:09:52;99153.00;;;17.20
11321;BMP180;5715;48.234;14.320;2024-03-17T02:12:38;99152.00;;;17.50
11321;BMP180;5715;48.234;14.320;2024-03-17T02:15:25;99147.00;;;17.50
11321;BMP180;5715;48.234;14.320;2024-03-17T02:18:12;99150.00;;;17.50
11321;BMP180;5715;48.234;14.320;2024-03-17T02:20:59;99150.00;;;17.40
11321;BMP180;5715;48.234;14.320;2024-03-17T02:23:47;99159.00;;;17.40
11321;BMP180;5715;48.234;14.320;2024-03-17T02:26:33;99154.00;;;17.40
11321;BMP180;5715;48.234;14.320;2024-03-17T02:29:21;99165.00;;;17.20
11321;BMP180;5715;48.234;14.320;2024-03-17T02:32:08;99165.00;;;17.30
11321;BMP180;5715;48.234;14.320;2024-03-17T02:34:54;99165.00;;;17.30
11321;BMP180;5715;48.234;14.320;2024-03-17T02:37:41;99170.00;;;17.20
11321;BMP180;5715;48.234;14.320;2024-03-17T02:40:28;99161.00;;;17.00
11321;BMP180;5715;48.234;14.320;2024-03-17T02:43:15;99166.00;;;16.90
11321;BMP180;5715;48.234;14.320;2024-03-17T02:46:02;99170.00;;;16.90
11321;BMP180;5715;48.234;14.320;2024-03-17T02:48:53;99166.00;;;16.70
11321;BMP180;5715;48.234;14.320;2024-03-17T02:51:40;99164.00;;;16.80
11321;BMP180;5715;48.234;14.320;2024-03-17T02:54:26;99170.00;;;16.90
11321;BMP180;5715;48.234;14.320;2024-03-17T02:57:14;99165.00;;;16.70
11321;BMP180;5715;48.234;14.320;2024-03-17T03:00:00;99165.00;;;16.70
11321;BMP180;5715;48.234;14.320;2024-03-17T03:02:50;99172.00;;;16.80
11321;BMP180;5715;48.234;14.320;2024-03-17T03:05:37;99160.00;;;16.70
11321;BMP180;5715;48.234;14.320;2024-03-17T03:08:24;99162.00;;;16.40
11321;BMP180;5715;48.234;14.320;2024-03-17T03:11:11;99163.00;;;16.60
11321;BMP180;5715;48.234;14.320;2024-03-17T03:13:59;99163.00;;;16.60
11321;BMP180;5715;48.234;14.320;2024-03-17T03:16:45;99158.00;;;16.50
11321;BMP180;5715;48.234;14.320;2024-03-17T03:19:32;99157.00;;;16.60
11321;BMP180;5715;48.234;14.320;2024-03-17T03:22:19;99156.00;;;16.70
11321;BMP180;5715;48.234;14.320;2024-03-17T03:25:08;99168.00;;;16.60
11321;BMP180;5715;48.234;14.320;2024-03-17T03:27:54;99174.00;;;16.60
11321;BMP180;5715;48.234;14.320;2024-03-17T03:30:44;99184.00;;;16.50
11321;BMP180;5715;48.234;14.320;2024-03-17T03:33:31;99187.00;;;16.50
11321;BMP180;5715;48.234;14.320;2024-03-17T03:36:18;99181.00;;;16.50
11321;BMP180;5715;48.234;14.320;2024-03-17T03:39:05;99184.00;;;16.50
11321;BMP180;5715;48.234;14.320;2024-03-17T03:41:52;99186.00;;;16.50
11321;BMP180;5715;48.234;14.320;2024-03-17T03:44:38;99176.00;;;16.70
11321;BMP180;5715;48.234;14.320;2024-03-17T03:47:25;99175.00;;;16.60
11321;BMP180;5715;48.234;14.320;2024-03-17T03:50:15;99174.00;;;16.70
11321;BMP180;5715;48.234;14.320;2024-03-17T03:53:02;99184.00;;;16.50
11321;BMP180;5715;48.234;14.320;2024-03-17T03:55:48;99182.00;;;16.60
11321;BMP180;5715;48.234;14.320;2024-03-17T03:58:37;99168.00;;;16.70
11321;BMP180;5715;48.234;14.320;2024-03-17T04:01:24;99168.00;;;16.70
11321;BMP180;5715;48.234;14.320;2024-03-17T04:04:11;99162.00;;;16.60
11321;BMP180;5715;48.234;14.320;2024-03-17T04:06:58;99168.00;;;16.30
11321;BMP180;5715;48.234;14.320;2024-03-17T04:09:44;99163.00;;;16.60
11321;BMP180;5715;48.234;14.320;2024-03-17T04:12:31;99165.00;;;16.40
11321;BMP180;5715;48.234;14.320;2024-03-17T04:15:19;99166.00;;;16.40
11321;BMP180;5715;48.234;14.320;2024-03-17T04:18:06;99171.00;;;16.40
11321;BMP180;5715;48.234;14.320;2024-03-17T04:20:54;99171.00;;;16.30
11321;BMP180;5715;48.234;14.320;2024-03-17T04:23:40;99160.00;;;16.30
11321;BMP180;5715;48.234;14.320;2024-03-17T04:26:27;99171.00;;;16.40
11321;BMP180;5715;48.234;14.320;2024-03-17T04:29:14;99170.00;;;16.40
11321;BMP180;5715;48.234;14.320;2024-03-17T04:32:01;99168.00;;;16.50
11321;BMP180;5715;48.234;14.320;2024-03-17T04:34:48;99173.00;;;16.40
11321;BMP180;5715;48.234;14.320;2024-03-17T04:37:34;99171.00;;;16.50
11321;BMP180;5715;48.234;14.320;2024-03-17T04:40:25;99169.00;;;16.40
11321;BMP180;5715;48.234;14.320;2024-03-17T04:43:12;99171.00;;;16.50
11321;BMP180;5715;48.234;14.320;2024-03-17T04:46:05;99170.00;;;16.50
11321;BMP180;5715;48.234;14.320;2024-03-17T04:48:53;99171.00;;;16.60
11321;BMP180;5715;48.234;14.320;2024-03-17T04:51:40;99169.00;;;16.60
11321;BMP180;5715;48.234;14.320;2024-03-17T04:54:27;99176.00;;;16.50
11321;BMP180;5715;48.234;14.320;2024-03-17T04:57:13;99179.00;;;16.50
11321;BMP180;5715;48.234;14.320;2024-03-17T05:00:00;99184.00;;;16.40
11321;BMP180;5715;48.234;14.320;2024-03-17T05:02:46;99182.00;;;16.30
11321;BMP180;5715;48.234;14.320;2024-03-17T05:05:33;99183.00;;;16.40
11321;BMP180;5715;48.234;14.320;2024-03-17T05:08:20;99180.00;;;16.30
11321;BMP180;5715;48.234;14.320;2024-03-17T05:11:06;99187.00;;;16.20
11321;BMP180;5715;48.234;14.320;2024-03-17T05:13:53;99196.00;;;16.40
11321;BMP180;5715;48.234;14.320;2024-03-17T05:16:40;99196.00;;;16.20
11321;BMP180;5715;48.234;14.320;2024-03-17T05:19:27;99192.00;;;16.30
11321;BMP180;5715;48.234;14.320;2024-03-17T05:22:14;99185.00;;;16.20
11321;BMP180;5715;48.234;14.320;2024-03-17T05:25:01;99190.00;;;16.20
11321;BMP180;5715;48.234;14.320;2024-03-17T05:27:47;99189.00;;;16.20
11321;BMP180;5715;48.234;14.320;2024-03-17T05:30:36;99192.00;;;16.10
11321;BMP180;5715;48.234;14.320;2024-03-17T05:33:25;99193.00;;;16.20
11321;BMP180;5715;48.234;14.320;2024-03-17T05:36:12;99198.00;;;16.20
11321;BMP180;5715;48.234;14.320;2024-03-17T05:38:59;99206.00;;;16.30
11321;BMP180;5715;48.234;14.320;2024-03-17T05:41:46;99211.00;;;16.20
11321;BMP180;5715;48.234;14.320;2024-03-17T05:44:36;99220.00;;;16.30
11321;BMP180;5715;48.234;14.320;2024-03-17T05:47:37;99225.00;;;16.30
11321;BMP180;5715;48.234;14.320;2024-03-17T05:50:24;99221.00;;;16.40
11321;BMP180;5715;48.234;14.320;2024-03-17T05:53:10;99221.00;;;16.50
11321;BMP180;5715;48.234;14.320;2024-03-17T05:55:59;99223.00;;;16.60
11321;BMP180;5715;48.234;14.320;2024-03-17T05:58:46;99232.00;;;16.60
11321;BMP180;5715;48.234;14.320;2024-03-17T06:01:33;99227.00;;;16.70
11321;BMP180;5715;48.234;14.320;2024-03-17T06:04:20;99230.00;;;16.90
11321;BMP180;5715;48.234;14.320;2024-03-17T06:07:06;99238.00;;;16.90
11321;BMP180;5715;48.234;14.320;2024-03-17T06:09:53;99233.00;;;17.00
11321;BMP180;5715;48.234;14.320;2024-03-17T06:12:40;99228.00;;;17.10
11321;BMP180;5715;48.234;14.320;2024-03-17T06:15:27;99229.00;;;17.20
11321;BMP180;5715;48.234;14.320;2024-03-17T06:18:14;99225.00;;;17.20
11321;BMP180;5715;48.234;14.320;2024-03-17T06:21:05;99222.00;;;17.30
11321;BMP180;5715;48.234;14.320;2024-03-17T06:23:52;99223.00;;;17.40
11321;BMP180;5715;48.234;14.320;2024-03-17T06:26:38;99222.00;;;17.40
11321;BMP180;5715;48.234;14.320;2024-03-17T06:29:25;99229.00;;;17.60
11321;BMP180;5715;48.234;14.320;2024-03-17T06:32:12;99225.00;;;17.60
11321;BMP180;5715;48.234;14.320;2024-03-17T06:35:01;99224.00;;;17.60
11321;BMP180;5715;48.234;14.320;2024-03-17T06:37:48;99231.00;;;17.70
11321;BMP180;5715;48.234;14.320;2024-03-17T06:40:35;99228.00;;;17.80
11321;BMP180;5715;48.234;14.320;2024-03-17T06:43:22;99227.00;;;17.80
11321;BMP180;5715;48.234;14.320;2024-03-17T06:46:08;99224.00;;;17.90
11321;BMP180;5715;48.234;14.320;2024-03-17T06:48:55;99231.00;;;18.00
11321;BMP180;5715;48.234;14.320;2024-03-17T06:51:44;99245.00;;;17.70
11321;BMP180;5715;48.234;14.320;2024-03-17T06:54:31;99246.00;;;17.80
11321;BMP180;5715;48.234;14.320;2024-03-17T06:57:22;99251.00;;;18.10
11321;BMP180;5715;48.234;14.320;2024-03-17T07:00:09;99250.00;;;18.20
11321;BMP180;5715;48.234;14.320;2024-03-17T07:03:00;99258.00;;;18.10
11321;BMP180;5715;48.234;14.320;2024-03-17T07:05:58;99253.00;;;18.40
11321;BMP180;5715;48.234;14.320;2024-03-17T07:08:45;99261.00;;;17.80
11321;BMP180;5715;48.234;14.320;2024-03-17T07:11:32;99253.00;;;18.60
11321;BMP180;5715;48.234;14.320;2024-03-17T07:14:18;99250.00;;;18.60
11321;BMP180;5715;48.234;14.320;2024-03-17T07:17:05;99252.00;;;18.40
11321;BMP180;5715;48.234;14.320;2024-03-17T07:19:51;99248.00;;;19.20
11321;BMP180;5715;48.234;14.320;2024-03-17T07:22:38;99251.00;;;18.50
11321;BMP180;5715;48.234;14.320;2024-03-17T07:25:25;99248.00;;;18.50
11321;BMP180;5715;48.234;14.320;2024-03-17T07:28:12;99247.00;;;18.70
11321;BMP180;5715;48.234;14.320;2024-03-17T07:30:59;99247.00;;;18.70
11321;BMP180;5715;48.234;14.320;2024-03-17T07:33:49;99241.00;;;19.00
11321;BMP180;5715;48.234;14.320;2024-03-17T07:36:35;99252.00;;;19.40
11321;BMP180;5715;48.234;14.320;2024-03-17T07:39:22;99249.00;;;19.40
11321;BMP180;5715;48.234;14.320;2024-03-17T07:42:09;99255.00;;;19.40
11321;BMP180;5715;48.234;14.320;2024-03-17T07:44:56;99259.00;;;19.00
11321;BMP180;5715;48.234;14.320;2024-03-17T07:47:43;99254.00;;;19.80
11321;BMP180;5715;48.234;14.320;2024-03-17T07:50:29;99260.00;;;19.60
11321;BMP180;5715;48.234;14.320;2024-03-17T07:53:16;99250.00;;;19.80
11321;BMP180;5715;48.234;14.320;2024-03-17T07:56:05;99251.00;;;19.80
11321;BMP180;5715;48.234;14.320;2024-03-17T07:58:52;99254.00;;;20.20
11321;BMP180;5715;48.234;14.320;2024-03-17T08:01:39;99250.00;;;20.60
11321;BMP180;5715;48.234;14.320;2024-03-17T08:04:25;99261.00;;;20.70
11321;BMP180;5715;48.234;14.320;2024-03-17T08:07:12;99261.00;;;20.60
11321;BMP180;5715;48.234;14.320;2024-03-17T08:09:59;99247.00;;;20.90
11321;BMP180;5715;48.234;14.320;2024-03-17T08:12:46;99250.00;;;21.20
11321;BMP180;5715;48.234;14.320;2024-03-17T08:15:32;99249.00;;;21.20
11321;BMP180;5715;48.234;14.320;2024-03-17T08:18:19;99247.00;;;21.60
11321;BMP180;5715;48.234;14.320;2024-03-17T08:21:06;99253.00;;;21.80
11321;BMP180;5715;48.234;14.320;2024-03-17T08:23:53;99243.00;;;21.60
11321;BMP180;5715;48.234;14.320;2024-03-17T08:26:40;99244.00;;;19.60
11321;BMP180;5715;48.234;14.320;2024-03-17T08:29:31;99247.00;;;20.40
11321;BMP180;5715;48.234;14.320;2024-03-17T08:32:19;99246.00;;;21.00
11321;BMP180;5715;48.234;14.320;2024-03-17T08:35:06;99241.00;;;20.90
11321;BMP180;5715;48.234;14.320;2024-03-17T08:37:53;99234.00;;;21.10
11321;BMP180;5715;48.234;14.320;2024-03-17T08:40:42;99233.00;;;21.10
11321;BMP180;5715;48.234;14.320;2024-03-17T08:43:31;99227.00;;;21.40
11321;BMP180;5715;48.234;14.320;2024-03-17T08:46:18;99221.00;;;21.50
11321;BMP180;5715;48.234;14.320;2024-03-17T08:49:05;99220.00;;;21.50
11321;BMP180;5715;48.234;14.320;2024-03-17T08:51:52;99209.00;;;20.20
11321;BMP180;5715;48.234;14.320;2024-03-17T08:54:38;99202.00;;;20.70
11321;BMP180;5715;48.234;14.320;2024-03-17T08:57:25;99213.00;;;20.50
11321;BMP180;5715;48.234;14.320;2024-03-17T09:00:13;99214.00;;;21.20
11321;BMP180;5715;48.234;14.320;2024-03-17T09:03:01;99209.00;;;20.90
11321;BMP180;5715;48.234;14.320;2024-03-17T09:05:48;99217.00;;;21.60
11321;BMP180;5715;48.234;14.320;2024-03-17T09:08:36;99211.00;;;21.80
11321;BMP180;5715;48.234;14.320;2024-03-17T09:11:22;99216.00;;;21.90
11321;BMP180;5715;48.234;14.320;2024-03-17T09:14:11;99208.00;;;22.10
11321;BMP180;5715;48.234;14.320;2024-03-17T09:16:58;99207.00;;;21.40
11321;BMP180;5715;48.234;14.320;2024-03-17T09:19:45;99202.00;;;21.90
11321;BMP180;5715;48.234;14.320;2024-03-17T09:22:32;99198.00;;;21.60
11321;BMP180;5715;48.234;14.320;2024-03-17T09:25:19;99195.00;;;22.10
11321;BMP180;5715;48.234;14.320;2024-03-17T09:28:06;99191.00;;;22.30
11321;BMP180;5715;48.234;14.320;2024-03-17T09:30:52;99196.00;;;21.40
11321;BMP180;5715;48.234;14.320;2024-03-17T09:33:39;99195.00;;;22.00
11321;BMP180;5715;48.234;14.320;2024-03-17T09:36:26;99193.00;;;22.40
11321;BMP180;5715;48.234;14.320;2024-03-17T09:39:12;99181.00;;;21.10
11321;BMP180;5715;48.234;14.320;2024-03-17T09:42:02;99185.00;;;21.80
11321;BMP180;5715;48.234;14.320;2024-03-17T09:44:52;99182.00;;;22.50
11321;BMP180;5715;48.234;14.320;2024-03-17T09:47:41;99169.00;;;22.50
11321;BMP180;5715;48.234;14.320;2024-03-17T09:50:28;99169.00;;;22.70
11321;BMP180;5715;48.234;14.320;2024-03-17T09:53:17;99175.00;;;22.70
11321;BMP180;5715;48.234;14.320;2024-03-17T09:56:13;99177.00;;;22.10
11321;BMP180;5715;48.234;14.320;2024-03-17T09:59:03;99170.00;;;22.50
11321;BMP180;5715;48.234;14.320;2024-03-17T10:01:50;99167.00;;;22.50
11321;BMP180;5715;48.234;14.320;2024-03-17T10:04:37;99168.00;;;22.80
11321;BMP180;5715;48.234;14.320;2024-03-17T10:07:38;99166.00;;;22.70
11321;BMP180;5715;48.234;14.320;2024-03-17T10:10:25;99162.00;;;22.70
11321;BMP180;5715;48.234;14.320;2024-03-17T10:13:13;99175.00;;;23.50
11321;BMP180;5715;48.234;14.320;2024-03-17T10:15:59;99164.00;;;23.70
11321;BMP180;5715;48.234;14.320;2024-03-17T10:18:46;99155.00;;;23.70
11321;BMP180;5715;48.234;14.320;2024-03-17T10:21:33;99167.00;;;23.50
11321;BMP180;5715;48.234;14.320;2024-03-17T10:24:23;99165.00;;;23.30
11321;BMP180;5715;48.234;14.320;2024-03-17T10:27:11;99162.00;;;24.30
11321;BMP180;5715;48.234;14.320;2024-03-17T10:29:58;99159.00;;;24.50
11321;BMP180;5715;48.234;14.320;2024-03-17T10:32:45;99170.00;;;23.80
11321;BMP180;5715;48.234;14.320;2024-03-17T10:35:34;99163.00;;;23.80
11321;BMP180;5715;48.234;14.320;2024-03-17T10:38:21;99160.00;;;24.70
11321;BMP180;5715;48.234;14.320;2024-03-17T10:41:09;99155.00;;;24.30
11321;BMP180;5715;48.234;14.320;2024-03-17T10:43:59;99155.00;;;24.10
11321;BMP180;5715;48.234;14.320;2024-03-17T10:46:46;99161.00;;;23.80
11321;BMP180;5715;48.234;14.320;2024-03-17T10:49:37;99155.00;;;23.90
11321;BMP180;5715;48.234;14.320;2024-03-17T10:52:24;99145.00;;;23.30
11321;BMP180;5715;48.234;14.320;2024-03-17T10:58:33;99151.00;;;23.60
11321;BMP180;5715;48.234;14.320;2024-03-17T11:01:22;99150.00;;;23.90
11321;BMP180;5715;48.234;14.320;2024-03-17T11:04:13;99145.00;;;23.30
11321;BMP180;5715;48.234;14.320;2024-03-17T11:07:01;99137.00;;;23.50
11321;BMP180;5715;48.234;14.320;2024-03-17T11:09:52;99139.00;;;23.70
11321;BMP180;5715;48.234;14.320;2024-03-17T11:12:50;99133.00;;;23.70
11321;BMP180;5715;48.234;14.320;2024-03-17T11:15:38;99135.00;;;24.10
11321;BMP180;5715;48.234;14.320;2024-03-17T11:18:33;99127.00;;;23.60
11321;BMP180;5715;48.234;14.320;2024-03-17T11:21:22;99128.00;;;23.90
11321;BMP180;5715;48.234;14.320;2024-03-17T11:24:21;99127.00;;;23.90
11321;BMP180;5715;48.234;14.320;2024-03-17T11:27:39;99121.00;;;24.20
11321;BMP180;5715;48.234;14.320;2024-03-17T11:36:36;99109.00;;;24.80
11321;BMP180;5715;48.234;14.320;2024-03-17T11:39:48;99108.00;;;24.70
11321;BMP180;5715;48.234;14.320;2024-03-17T11:42:36;99104.00;;;25.20
11321;BMP180;5715;48.234;14.320;2024-03-17T11:45:25;99103.00;;;25.10
11321;BMP180;5715;48.234;14.320;2024-03-17T11:48:14;99088.00;;;25.30
11321;BMP180;5715;48.234;14.320;2024-03-17T11:51:02;99082.00;;;25.00
11321;BMP180;5715;48.234;14.320;2024-03-17T11:53:58;99083.00;;;25.20
11321;BMP180;5715;48.234;14.320;2024-03-17T11:56:48;99084.00;;;25.40
11321;BMP180;5715;48.234;14.320;2024-03-17T11:59:36;99076.00;;;25.60
11321;BMP180;5715;48.234;14.320;2024-03-17T12:02:29;99069.00;;;25.20
11321;BMP180;5715;48.234;14.320;2024-03-17T12:05:16;99060.00;;;25.20
11321;BMP180;5715;48.234;14.320;2024-03-17T12:08:03;99058.00;;;25.20
11321;BMP180;5715;48.234;14.320;2024-03-17T12:10:50;99050.00;;;25.00
11321;BMP180;5715;48.234;14.320;2024-03-17T12:13:37;99056.00;;;25.00
11321;BMP180;5715;48.234;14.320;2024-03-17T12:16:24;99042.00;;;25.40
11321;BMP180;5715;48.234;14.320;2024-03-17T12:19:11;99037.00;;;25.40
11321;BMP180;5715;48.234;14.320;2024-03-17T12:22:00;99034.00;;;25.30
11321;BMP180;5715;48.234;14.320;2024-03-17T12:24:55;99030.00;;;25.10
11321;BMP180;5715;48.234;14.320;2024-03-17T12:27:45;99025.00;;;25.30
11321;BMP180;5715;48.234;14.320;2024-03-17T12:30:33;99025.00;;;25.40
11321;BMP180;5715;48.234;14.320;2024-03-17T12:33:20;99017.00;;;25.50
11321;BMP180;5715;48.234;14.320;2024-03-17T12:36:07;99013.00;;;25.70
11321;BMP180;5715;48.234;14.320;2024-03-17T12:38:54;99006.00;;;25.60
11321;BMP180;5715;48.234;14.320;2024-03-17T12:41:40;99008.00;;;25.60
11321;BMP180;5715;48.234;14.320;2024-03-17T12:44:27;99002.00;;;25.90
11321;BMP180;5715;48.234;14.320;2024-03-17T12:47:26;99003.00;;;26.10
11321;BMP180;5715;48.234;14.320;2024-03-17T12:50:13;99000.00;;;26.10
11321;BMP180;5715;48.234;14.320;2024-03-17T12:53:01;98992.00;;;25.90
11321;BMP180;5715;48.234;14.320;2024-03-17T12:55:54;98988.00;;;25.90
11321;BMP180;5715;48.234;14.320;2024-03-17T12:59:09;98974.00;;;25.60
11321;BMP180;5715;48.234;14.320;2024-03-17T13:02:14;98981.00;;;25.50
11321;BMP180;5715;48.234;14.320;2024-03-17T13:05:17;98981.00;;;25.30
11321;BMP180;5715;48.234;14.320;2024-03-17T13:08:04;98982.00;;;24.90
11321;BMP180;5715;48.234;14.320;2024-03-17T13:10:52;98976.00;;;24.90
11321;BMP180;5715;48.234;14.320;2024-03-17T13:13:38;98973.00;;;24.80
11321;BMP180;5715;48.234;14.320;2024-03-17T13:16:25;98970.00;;;25.20
11321;BMP180;5715;48.234;14.320;2024-03-17T13:19:11;98964.00;;;24.50
11321;BMP180;5715;48.234;14.320;2024-03-17T13:21:58;98950.00;;;24.50
11321;BMP180;5715;48.234;14.320;2024-03-17T13:24:45;98946.00;;;24.80
11321;BMP180;5715;48.234;14.320;2024-03-17T13:27:32;98942.00;;;24.40
11321;BMP180;5715;48.234;14.320;2024-03-17T13:30:21;98949.00;;;24.80
11321;BMP180;5715;48.234;14.320;2024-03-17T13:33:13;98939.00;;;25.00
11321;BMP180;5715;48.234;14.320;2024-03-17T13:36:00;98927.00;;;24.90
11321;BMP180;5715;48.234;14.320;2024-03-17T13:38:46;98934.00;;;25.10
11321;BMP180;5715;48.234;14.320;2024-03-17T13:41:33;98933.00;;;25.50
11321;BMP180;5715;48.234;14.320;2024-03-17T13:44:20;98934.00;;;25.70
11321;BMP180;5715;48.234;14.320;2024-03-17T13:47:07;98929.00;;;25.80
11321;BMP180;5715;48.234;14.320;2024-03-17T13:49:54;98919.00;;;26.30
11321;BMP180;5715;48.234;14.320;2024-03-17T13:52:42;98919.00;;;26.10
11321;BMP180;5715;48.234;14.320;2024-03-17T13:55:29;98914.00;;;26.00
11321;BMP180;5715;48.234;14.320;2024-03-17T13:58:17;98914.00;;;26.00
11321;BMP180;5715;48.234;14.320;2024-03-17T14:01:04;98910.00;;;25.60
11321;BMP180;5715;48.234;14.320;2024-03-17T14:03:50;98910.00;;;25.60
11321;BMP180;5715;48.234;14.320;2024-03-17T14:06:38;98903.00;;;25.00
11321;BMP180;5715;48.234;14.320;2024-03-17T14:09:30;98901.00;;;25.10
11321;BMP180;5715;48.234;14.320;2024-03-17T14:12:17;98908.00;;;24.70
11321;BMP180;5715;48.234;14.320;2024-03-17T14:15:04;98899.00;;;24.90
11321;BMP180;5715;48.234;14.320;2024-03-17T14:17:51;98895.00;;;24.90
11321;BMP180;5715;48.234;14.320;2024-03-17T14:20:38;98898.00;;;24.70
11321;BMP180;5715;48.234;14.320;2024-03-17T14:23:25;98892.00;;;24.20
11321;BMP180;5715;48.234;14.320;2024-03-17T14:26:11;98894.00;;;24.10
11321;BMP180;5715;48.234;14.320;2024-03-17T14:28:59;98896.00;;;24.40
11321;BMP180;5715;48.234;14.320;2024-03-17T14:31:46;98896.00;;;24.20
11321;BMP180;5715;48.234;14.320;2024-03-17T14:34:32;98896.00;;;24.10
11321;BMP180;5715;48.234;14.320;2024-03-17T14:37:22;98889.00;;;23.90
11321;BMP180;5715;48.234;14.320;2024-03-17T14:40:12;98896.00;;;24.30
11321;BMP180;5715;48.234;14.320;2024-03-17T14:43:06;98889.00;;;24.30
11321;BMP180;5715;48.234;14.320;2024-03-17T14:45:53;98886.00;;;24.60
11321;BMP180;5715;48.234;14.320;2024-03-17T14:48:40;98875.00;;;24.50
11321;BMP180;5715;48.234;14.320;2024-03-17T14:51:29;98879.00;;;24.60
11321;BMP180;5715;48.234;14.320;2024-03-17T14:54:16;98870.00;;;24.40
11321;BMP180;5715;48.234;14.320;2024-03-17T14:57:03;98875.00;;;24.40
11321;BMP180;5715;48.234;14.320;2024-03-17T14:59:49;98868.00;;;24.30
11321;BMP180;5715;48.234;14.320;2024-03-17T15:02:36;98874.00;;;24.50
11321;BMP180;5715;48.234;14.320;2024-03-17T15:05:23;98866.00;;;24.30
11321;BMP180;5715;48.234;14.320;2024-03-17T15:08:10;98874.00;;;24.20
11321;BMP180;5715;48.234;14.320;2024-03-17T15:10:57;98868.00;;;24.50
11321;BMP180;5715;48.234;14.320;2024-03-17T15:13:44;98868.00;;;24.50
11321;BMP180;5715;48.234;14.320;2024-03-17T15:16:31;98858.00;;;24.40
11321;BMP180;5715;48.234;14.320;2024-03-17T15:19:18;98867.00;;;24.40
11321;BMP180;5715;48.234;14.320;2024-03-17T15:22:05;98865.00;;;24.30
11321;BMP180;5715;48.234;14.320;2024-03-17T15:24:51;98863.00;;;24.50
11321;BMP180;5715;48.234;14.320;2024-03-17T15:27:45;98868.00;;;25.00
11321;BMP180;5715;48.234;14.320;2024-03-17T15:30:32;98878.00;;;25.00
11321;BMP180;5715;48.234;14.320;2024-03-17T15:33:18;98874.00;;;25.40
11321;BMP180;5715;48.234;14.320;2024-03-17T15:36:06;98868.00;;;25.40
11321;BMP180;5715;48.234;14.320;2024-03-17T15:38:54;98864.00;;;25.30
11321;BMP180;5715;48.234;14.320;2024-03-17T15:41:40;98856.00;;;24.80
11321;BMP180;5715;48.234;14.320;2024-03-17T15:44:27;98856.00;;;24.50
11321;BMP180;5715;48.234;14.320;2024-03-17T15:47:14;98857.00;;;24.60
11321;BMP180;5715;48.234;14.320;2024-03-17T15:50:00;98855.00;;;24.60
11321;BMP180;5715;48.234;14.320;2024-03-17T15:52:47;98861.00;;;24.30
11321;BMP180;5715;48.234;14.320;2024-03-17T15:55:34;98855.00;;;24.40
11321;BMP180;5715;48.234;14.320;2024-03-17T15:58:21;98854.00;;;24.30
11321;BMP180;5715;48.234;14.320;2024-03-17T16:01:08;98853.00;;;24.20
11321;BMP180;5715;48.234;14.320;2024-03-17T16:03:56;98859.00;;;23.90
11321;BMP180;5715;48.234;14.320;2024-03-17T16:06:42;98852.00;;;23.70
11321;BMP180;5715;48.234;14.320;2024-03-17T16:09:29;98853.00;;;23.30
11321;BMP180;5715;48.234;14.320;2024-03-17T16:12:16;98854.00;;;23.10
11321;BMP180;5715;48.234;14.320;2024-03-17T16:15:04;98849.00;;;23.10
11321;BMP180;5715;48.234;14.320;2024-03-17T16:17:51;98843.00;;;22.80